Time;durP1;ratioP1;P1;durP2;ratioP2;P2;SDS_P1;SDS_P2;PMS_P1;PMS_P2;Temp;Humidity;BMP_temperature;BMP_pressure;BME280_temperature;BME280_humidity;BME280_pressure;Samples;Min_cycle;Max_cycle;Signal;HPM_P1;HPM_P2
2024/01/24 00:04:03;;;;;;;1.92;0.45;;;13.40;61.00;;;;;;20641114;28;20044;-39
2024/01/24 00:14:03;;;;;;;2.35;0.40;;;13.40;60.20;;;;;;20653626;28;20065;-40
2024/01/24 00:24:04;;;;;;;2.05;0.68;;;13.40;64.00;;;;;;20653755;28;20038;-40
2024/01/24 00:34:05;;;;;;;5.22;0.90;;;13.20;93.50;;;;;;20652790;28;20049;-40
2024/01/24 00:44:08;;;;;;;3.67;1.20;;;13.00;99.90;;;;;;20652634;28;20101;-40
2024/01/24 00:54:09;;;;;;;3.60;1.52;;;12.90;99.90;;;;;;20652699;28;20091;-40
2024/01/24 01:04:09;;;;;;;3.40;1.40;;;12.80;99.90;;;;;;20650315;28;20131;-40
2024/01/24 01:14:10;;;;;;;2.53;1.08;;;12.80;99.90;;;;;;20649755;28;20046;-40
2024/01/24 01:24:11;;;;;;;3.58;0.90;;;12.80;99.90;;;;;;20653587;28;20490;-39
2024/01/24 01:34:11;;;;;;;5.40;1.00;;;12.70;99.90;;;;;;20670864;28;20551;-40
2024/01/24 01:44:15;;;;;;;9.35;1.33;;;12.70;99.90;;;;;;20659027;28;20038;-40
2024/01/24 01:54:16;;;;;;;6.38;0.80;;;12.70;99.90;;;;;;20649820;28;20124;-40
2024/01/24 02:04:17;;;;;;;7.22;1.13;;;12.80;99.90;;;;;;20648264;28;20093;-39
2024/01/24 02:14:18;;;;;;;7.45;0.90;;;12.90;99.90;;;;;;20640886;28;20141;-40
2024/01/24 02:24:18;;;;;;;8.48;1.73;;;12.90;99.90;;;;;;20650505;28;20159;-40
2024/01/24 02:34:19;;;;;;;9.43;1.83;;;12.80;99.90;;;;;;20661682;28;20141;-40
2024/01/24 02:44:19;;;;;;;8.93;1.48;;;12.70;99.90;;;;;;20670811;28;20054;-40
2024/01/24 02:54:20;;;;;;;10.65;1.40;;;12.70;99.90;;;;;;20669989;28;20448;-41
2024/01/24 03:04:20;;;;;;;6.53;1.13;;;12.70;95.90;;;;;;20662087;28;20197;-40
2024/01/24 03:14:21;;;;;;;10.30;1.50;;;12.70;77.90;;;;;;20665742;28;20153;-40
2024/01/24 03:24:22;;;;;;;11.83;2.10;;;12.60;60.10;;;;;;20660390;28;20045;-40
2024/01/24 03:34:23;;;;;;;10.90;1.80;;;12.50;49.00;;;;;;20660718;28;20456;-40
2024/01/24 03:44:24;;;;;;;17.15;2.45;;;12.40;41.40;;;;;;20662317;28;20052;-40
2024/01/24 03:54:24;;;;;;;18.00;3.58;;;12.40;33.40;;;;;;20664754;28;20053;-40
2024/01/24 04:04:25;;;;;;;14.98;2.90;;;12.30;22.90;;;;;;20661786;28;20109;-39
2024/01/24 04:14:26;;;;;;;17.20;3.13;;;12.10;18.10;;;;;;20661319;28;20141;-40
2024/01/24 04:24:28;;;;;;;21.33;3.70;;;12.10;11.20;;;;;;20659562;28;20496;-40
2024/01/24 04:34:29;;;;;;;21.15;4.97;;;12.10;3.70;;;;;;20657676;28;20069;-40
2024/01/24 04:44:30;;;;;;;27.48;4.03;;;12.00;1.00;;;;;;20657777;28;20042;-40
2024/01/24 04:54:34;;;;;;;23.00;4.28;;;12.00;1.00;;;;;;20655092;28;20046;-40
2024/01/24 05:04:36;;;;;;;25.63;4.13;;;11.90;1.00;;;;;;20654024;28;20025;-40
2024/01/24 05:14:36;;;;;;;25.15;4.72;;;11.90;1.00;;;;;;20652548;28;20049;-40
2024/01/24 05:24:37;;;;;;;26.38;4.15;;;11.70;1.00;;;;;;20657317;28;20030;-39
2024/01/24 05:34:37;;;;;;;29.30;5.15;;;11.70;1.00;;;;;;20663822;28;20513;-39
2024/01/24 05:44:38;;;;;;;32.40;5.50;;;11.60;1.00;;;;;;20664733;28;20285;-40
2024/01/24 05:54:40;;;;;;;37.80;6.17;;;11.50;1.00;;;;;;20665677;28;20568;-40
2024/01/24 06:04:41;;;;;;;35.13;5.70;;;11.40;1.00;;;;;;20665204;28;20053;-40
2024/01/24 06:14:42;;;;;;;40.17;5.97;;;11.20;1.00;;;;;;20694871;28;20042;-40
2024/01/24 06:24:43;;;;;;;32.40;6.40;;;11.10;1.00;;;;;;20694720;28;20680;-39
2024/01/24 06:34:44;;;;;;;42.17;6.38;;;11.10;1.00;;;;;;20678230;28;20568;-39
2024/01/24 06:44:45;;;;;;;34.10;6.38;;;11.00;1.00;;;;;;20674581;28;20364;-39
2024/01/24 06:54:46;;;;;;;33.67;5.45;;;10.90;1.00;;;;;;20675946;28;20274;-40
2024/01/24 07:04:47;;;;;;;33.47;6.22;;;10.80;1.00;;;;;;20675162;28;20482;-39
2024/01/24 07:14:50;;;;;;;39.78;5.50;;;10.70;1.00;;;;;;20671488;28;20096;-40
2024/01/24 07:24:51;;;;;;;34.58;5.30;;;10.70;1.00;;;;;;20668277;28;20037;-40
2024/01/24 07:34:52;;;;;;;37.58;6.10;;;10.80;1.00;;;;;;20678270;28;20042;-39
2024/01/24 07:44:52;;;;;;;32.42;6.82;;;10.80;1.00;;;;;;20671519;28;20038;-39
2024/01/24 07:54:53;;;;;;;32.65;6.25;;;10.80;1.00;;;;;;20664328;28;20057;-39
2024/01/24 08:04:54;;;;;;;31.77;4.78;;;10.80;1.00;;;;;;20656110;28;20424;-39
2024/01/24 08:14:54;;;;;;;30.80;4.88;;;10.80;1.00;;;;;;20661138;28;20069;-40
2024/01/24 08:24:55;;;;;;;34.35;4.82;;;10.80;1.00;;;;;;20650928;28;20054;-40
2024/01/24 08:34:56;;;;;;;30.60;5.80;;;10.80;1.00;;;;;;20617288;28;20038;-40
2024/01/24 08:44:57;;;;;;;32.72;5.18;;;10.90;1.00;;;;;;20637487;28;20125;-39
2024/01/24 08:54:57;;;;;;;31.13;5.00;;;10.90;1.00;;;;;;20653539;28;20473;-39
2024/01/24 09:04:58;;;;;;;36.03;6.78;;;10.80;1.00;;;;;;20653111;28;20466;-39
2024/01/24 09:14:59;;;;;;;32.42;5.07;;;11.00;1.00;;;;;;20666744;28;20042;-40
2024/01/24 09:24:59;;;;;;;28.40;5.40;;;11.10;1.00;;;;;;20670952;28;20070;-39
2024/01/24 09:35:00;;;;;;;25.95;4.15;;;11.10;1.00;;;;;;20669663;28;20048;-39
2024/01/24 09:45:02;;;;;;;30.58;4.80;;;11.20;1.00;;;;;;20668522;28;20583;-40
2024/01/24 09:55:04;;;;;;;29.48;5.93;;;11.30;1.00;;;;;;20667189;28;20085;-39
2024/01/24 10:05:08;;;;;;;27.13;4.32;;;11.40;1.00;;;;;;20669600;28;20473;-39
2024/01/24 10:15:10;;;;;;;38.83;6.00;;;11.50;1.00;;;;;;20667915;28;20041;-39
2024/01/24 10:25:11;;;;;;;29.35;4.97;;;11.60;1.00;;;;;;20664667;28;20038;-40
2024/01/24 10:35:12;;;;;;;31.03;4.80;;;11.60;1.00;;;;;;20669354;28;20045;-41
2024/01/24 10:45:15;;;;;;;33.15;4.93;;;11.50;1.00;;;;;;20665801;28;20038;-40
2024/01/24 10:55:17;;;;;;;34.10;5.03;;;11.50;1.00;;;;;;20675543;28;20050;-40
2024/01/24 11:05:24;;;;;;;30.33;4.78;;;11.50;1.00;;;;;;20679514;28;20030;-39
2024/01/24 11:15:28;;;;;;;;;;;11.60;1.00;;;;;;20682083;28;20176;-40
2024/01/24 11:25:48;;;;;;;25.65;4.40;;;11.70;1.00;;;;;;20677020;28;19940;-40
2024/01/24 11:35:51;;;;;;;28.70;5.00;;;11.70;1.00;;;;;;20669418;28;20038;-39
2024/01/24 11:45:57;;;;;;;23.33;4.75;;;11.70;1.00;;;;;;20675568;28;20038;-41
2024/01/24 11:56:03;;;;;;;21.42;4.53;;;11.70;1.00;;;;;;20675895;28;20034;-40
2024/01/24 12:06:04;;;;;;;27.92;4.93;;;11.60;1.00;;;;;;20672919;28;20097;-40
2024/01/24 12:16:08;;;;;;;24.02;4.18;;;11.60;1.00;;;;;;20675698;28;20384;-40
2024/01/24 12:26:09;;;;;;;25.02;4.00;;;11.50;1.00;;;;;;20678528;28;20034;-40
2024/01/24 12:36:10;;;;;;;25.77;4.75;;;11.40;1.00;;;;;;20673103;28;20042;-40
2024/01/24 12:46:12;;;;;;;27.20;4.95;;;11.30;1.00;;;;;;20672035;28;20508;-40
2024/01/24 12:56:15;;;;;;;27.30;4.40;;;11.40;1.00;;;;;;20671065;28;20053;-40
2024/01/24 13:06:17;;;;;;;24.85;5.30;;;11.20;1.00;;;;;;20667004;28;20370;-40
2024/01/24 13:16:17;;;;;;;29.13;4.05;;;11.20;1.00;;;;;;20670743;28;20445;-40
2024/01/24 13:26:18;;;;;;;28.02;6.25;;;11.00;1.00;;;;;;20668069;28;20042;-40
2024/01/24 13:36:19;;;;;;;29.63;4.03;;;11.00;1.00;;;;;;20670525;28;20044;-40
2024/01/24 13:46:19;;;;;;;30.45;6.68;;;11.00;1.00;;;;;;20672163;28;20556;-40
2024/01/24 13:56:20;;;;;;;26.10;3.92;;;11.00;1.00;;;;;;20669306;28;20041;-39
2024/01/24 14:06:21;;;;;;;23.90;4.40;;;11.00;1.00;;;;;;20668864;28;20040;-40
2024/01/24 14:16:22;;;;;;;26.77;4.88;;;11.00;1.00;;;;;;20667403;28;20034;-40
2024/01/24 14:26:27;;;;;;;24.73;4.93;;;10.90;1.00;;;;;;20670049;28;20041;-39
2024/01/24 14:36:35;;;;;;;29.13;4.60;;;10.80;1.00;;;;;;20680970;28;20046;-40
2024/01/24 14:46:35;;;;;;;21.40;3.85;;;10.70;1.00;;;;;;20683686;28;20036;-40
2024/01/24 14:56:37;;;;;;;29.60;4.40;;;10.60;1.00;;;;;;20678922;28;20038;-40
2024/01/24 15:06:38;;;;;;;21.33;3.92;;;10.60;1.00;;;;;;20682887;28;20073;-40
2024/01/24 15:16:38;;;;;;;29.92;4.47;;;10.50;1.00;;;;;;20678159;28;20335;-40
2024/01/24 15:26:39;;;;;;;30.57;5.40;;;10.50;1.00;;;;;;20670318;28;20034;-40
2024/01/24 15:36:40;;;;;;;20.13;3.67;;;10.40;1.00;;;;;;20679742;28;20035;-40
2024/01/24 15:46:40;;;;;;;27.45;5.43;;;10.30;1.00;;;;;;20675928;28;20401;-40
2024/01/24 15:56:41;;;;;;;28.83;4.28;;;10.30;1.00;;;;;;20675256;28;20042;-40
2024/01/24 16:06:41;;;;;;;22.80;4.43;;;10.10;1.00;;;;;;20677693;28;20041;-40
2024/01/24 16:16:44;;;;;;;23.35;4.40;;;10.00;1.00;;;;;;20675845;28;20045;-40
2024/01/24 16:26:45;;;;;;;32.58;4.97;;;10.00;1.00;;;;;;20671188;28;20107;-40
2024/01/24 16:36:46;;;;;;;29.42;4.95;;;10.00;1.00;;;;;;20672625;28;20105;-40
2024/01/24 16:46:46;;;;;;;17.95;3.25;;;10.10;1.00;;;;;;20671503;28;20026;-39
2024/01/24 16:56:47;;;;;;;29.73;4.87;;;10.00;1.00;;;;;;20671545;28;20411;-39
2024/01/24 17:06:47;;;;;;;21.63;4.80;;;9.80;1.00;;;;;;20671355;28;20453;-40
2024/01/24 17:16:48;;;;;;;21.83;3.90;;;10.00;1.00;;;;;;20669277;28;20038;-40
2024/01/24 17:26:49;;;;;;;20.55;3.92;;;10.00;1.00;;;;;;20670529;28;20599;-39
2024/01/24 17:36:49;;;;;;;29.30;5.03;;;9.90;1.00;;;;;;20669663;28;20069;-39
2024/01/24 17:46:50;;;;;;;22.70;3.78;;;9.90;1.00;;;;;;20669965;28;20038;-40
2024/01/24 17:56:50;;;;;;;24.40;3.75;;;9.90;1.00;;;;;;20668180;28;20563;-40
2024/01/24 18:06:51;;;;;;;23.00;4.20;;;9.90;1.00;;;;;;20666517;28;20034;-40
2024/01/24 18:16:52;;;;;;;17.83;3.47;;;9.90;1.00;;;;;;20666311;28;20154;-40
2024/01/24 18:26:52;;;;;;;23.20;3.78;;;9.90;1.00;;;;;;20665162;28;20383;-40
2024/01/24 18:36:53;;;;;;;19.45;3.90;;;10.00;1.00;;;;;;20665318;28;20049;-40
2024/01/24 18:46:53;;;;;;;21.47;3.83;;;9.90;1.00;;;;;;20666114;28;20069;-40
2024/01/24 18:56:54;;;;;;;15.68;3.00;;;9.80;1.00;;;;;;20663934;28;20049;-40
2024/01/24 19:06:55;;;;;;;28.40;3.30;;;9.80;1.00;;;;;;20663627;28;20506;-40
2024/01/24 19:16:55;;;;;;;27.95;4.40;;;9.70;1.00;;;;;;20673841;28;20031;-40
2024/01/24 19:26:56;;;;;;;19.70;3.57;;;9.60;1.00;;;;;;20677685;28;20061;-40
2024/01/24 19:36:57;;;;;;;26.23;4.27;;;9.60;1.00;;;;;;20677186;28;20913;-40
2024/01/24 19:46:58;;;;;;;25.50;3.65;;;9.60;1.00;;;;;;20675707;28;20504;-40
2024/01/24 19:56:58;;;;;;;19.27;3.97;;;9.50;1.00;;;;;;20678434;28;20051;-39
2024/01/24 20:06:59;;;;;;;19.40;3.77;;;9.40;1.00;;;;;;20677980;28;20100;-40
2024/01/24 20:17:00;;;;;;;20.05;3.85;;;9.40;1.00;;;;;;20673661;28;20061;-39
2024/01/24 20:27:00;;;;;;;18.98;3.58;;;9.50;1.00;;;;;;20673026;28;20104;-40
2024/01/24 20:37:01;;;;;;;23.05;3.67;;;9.70;1.00;;;;;;20672380;28;20054;-39
2024/01/24 20:47:02;;;;;;;23.27;4.07;;;9.70;1.00;;;;;;20672374;28;20038;-40
2024/01/24 20:57:03;;;;;;;22.67;3.05;;;9.70;1.00;;;;;;20669704;28;20065;-40
2024/01/24 21:07:05;;;;;;;19.83;3.40;;;9.70;1.00;;;;;;20670953;28;20038;-40
2024/01/24 21:17:06;;;;;;;21.17;4.03;;;9.90;1.00;;;;;;20668318;28;20466;-39
2024/01/24 21:27:07;;;;;;;25.60;4.13;;;9.90;1.00;;;;;;20669375;28;20104;-39
2024/01/24 21:37:07;;;;;;;23.08;3.97;;;9.90;1.00;;;;;;20667278;28;20073;-40
2024/01/24 21:47:08;;;;;;;29.98;5.43;;;9.90;1.00;;;;;;20669542;28;20041;-39
2024/01/24 21:57:08;;;;;;;23.10;4.60;;;9.90;1.00;;;;;;20665848;28;20046;-40
2024/01/24 22:07:09;;;;;;;33.50;4.37;;;9.80;1.00;;;;;;20669019;28;20049;-40
2024/01/24 22:17:10;;;;;;;24.13;3.97;;;9.80;1.00;;;;;;20670776;28;20046;-40
2024/01/24 22:27:11;;;;;;;26.83;4.28;;;9.80;1.00;;;;;;20667766;28;20034;-40
2024/01/24 22:37:12;;;;;;;26.25;4.35;;;9.70;1.00;;;;;;20669708;28;20037;-39
2024/01/24 22:47:12;;;;;;;23.95;4.05;;;9.70;1.00;;;;;;20668947;28;20042;-40
2024/01/24 22:57:13;;;;;;;29.07;6.93;;;9.60;1.00;;;;;;20684621;28;20066;-39
2024/01/24 23:07:15;;;;;;;29.40;5.57;;;9.70;1.00;;;;;;20683564;28;20142;-40
2024/01/24 23:17:16;;;;;;;23.55;5.10;;;9.50;1.00;;;;;;20680020;28;20040;-39
2024/01/24 23:27:16;;;;;;;27.27;4.28;;;9.30;1.00;;;;;;20677260;28;20034;-39
2024/01/24 23:37:17;;;;;;;23.13;4.05;;;9.20;1.00;;;;;;20677252;28;20208;-40
2024/01/24 23:47:18;;;;;;;30.60;3.90;;;8.90;1.00;;;;;;20675860;28;20060;-39
2024/01/24 23:57:18;;;;;;;29.25;5.00;;;8.80;1.00;;;;;;20677243;28;20574;-40
